sensor_id;sensor_type;location;lat;lon;timestamp;P1;durP1;ratioP1;P2;durP2;ratioP2
41233;SDS011;26968;42.686;23.352;2023-04-07T00:00:21;21.50;;;11.60;;
41233;SDS011;26968;42.686;23.352;2023-04-07T00:02:47;21.23;;;11.23;;
41233;SDS011;26968;42.686;23.352;2023-04-07T00:05:13;17.58;;;11.27;;
41233;SDS011;26968;42.686;23.352;2023-04-07T00:07:39;20.60;;;11.43;;
41233;SDS011;26968;42.686;23.352;2023-04-07T00:10:05;20.30;;;11.25;;
41233;SDS011;26968;42.686;23.352;2023-04-07T00:12:31;22.00;;;11.07;;
41233;SDS011;26968;42.686;23.352;2023-04-07T00:14:56;22.58;;;11.50;;
41233;SDS011;26968;42.686;23.352;2023-04-07T00:17:22;27.17;;;15.23;;
41233;SDS011;26968;42.686;23.352;2023-04-07T00:19:47;22.30;;;13.55;;
41233;SDS011;26968;42.686;23.352;2023-04-07T00:22:12;27.40;;;14.70;;
41233;SDS011;26968;42.686;23.352;2023-04-07T00:24:38;36.90;;;19.63;;
41233;SDS011;26968;42.686;23.352;2023-04-07T00:27:03;35.92;;;18.38;;
41233;SDS011;26968;42.686;23.352;2023-04-07T00:29:29;44.25;;;20.85;;
41233;SDS011;26968;42.686;23.352;2023-04-07T00:31:55;39.13;;;20.98;;
41233;SDS011;26968;42.686;23.352;2023-04-07T00:34:20;38.40;;;20.88;;
41233;SDS011;26968;42.686;23.352;2023-04-07T00:36:46;40.03;;;20.27;;
41233;SDS011;26968;42.686;23.352;2023-04-07T00:39:16;40.88;;;20.58;;
41233;SDS011;26968;42.686;23.352;2023-04-07T00:41:44;39.83;;;20.38;;
41233;SDS011;26968;42.686;23.352;2023-04-07T00:44:10;39.45;;;20.17;;
41233;SDS011;26968;42.686;23.352;2023-04-07T00:46:36;40.83;;;21.33;;
41233;SDS011;26968;42.686;23.352;2023-04-07T00:49:02;34.92;;;19.73;;
41233;SDS011;26968;42.686;23.352;2023-04-07T00:51:27;37.60;;;20.05;;
41233;SDS011;26968;42.686;23.352;2023-04-07T00:53:53;33.03;;;18.70;;
41233;SDS011;26968;42.686;23.352;2023-04-07T00:56:19;38.10;;;19.08;;
41233;SDS011;26968;42.686;23.352;2023-04-07T00:58:44;33.42;;;19.42;;
41233;SDS011;26968;42.686;23.352;2023-04-07T01:01:32;36.28;;;19.55;;
41233;SDS011;26968;42.686;23.352;2023-04-07T01:04:08;34.58;;;18.50;;
41233;SDS011;26968;42.686;23.352;2023-04-07T01:06:47;31.25;;;17.60;;
41233;SDS011;26968;42.686;23.352;2023-04-07T01:09:17;37.60;;;19.35;;
41233;SDS011;26968;42.686;23.352;2023-04-07T01:11:58;36.20;;;17.30;;
41233;SDS011;26968;42.686;23.352;2023-04-07T01:14:27;33.70;;;17.95;;
41233;SDS011;26968;42.686;23.352;2023-04-07T01:17:01;34.67;;;16.90;;
41233;SDS011;26968;42.686;23.352;2023-04-07T01:22:01;34.33;;;18.02;;
41233;SDS011;26968;42.686;23.352;2023-04-07T01:30:34;35.58;;;18.30;;
41233;SDS011;26968;42.686;23.352;2023-04-07T01:33:03;34.95;;;20.48;;
41233;SDS011;26968;42.686;23.352;2023-04-07T01:35:31;38.35;;;17.63;;
41233;SDS011;26968;42.686;23.352;2023-04-07T01:37:58;37.95;;;18.17;;
41233;SDS011;26968;42.686;23.352;2023-04-07T01:40:24;30.77;;;18.00;;
41233;SDS011;26968;42.686;23.352;2023-04-07T01:42:52;37.22;;;19.20;;
41233;SDS011;26968;42.686;23.352;2023-04-07T01:45:20;35.28;;;18.45;;
41233;SDS011;26968;42.686;23.352;2023-04-07T01:47:46;38.72;;;20.65;;
41233;SDS011;26968;42.686;23.352;2023-04-07T01:50:13;36.60;;;20.35;;
41233;SDS011;26968;42.686;23.352;2023-04-07T01:52:40;45.13;;;21.45;;
41233;SDS011;26968;42.686;23.352;2023-04-07T01:55:06;39.35;;;20.50;;
41233;SDS011;26968;42.686;23.352;2023-04-07T01:57:33;37.47;;;19.63;;
41233;SDS011;26968;42.686;23.352;2023-04-07T01:59:59;42.92;;;19.88;;
41233;SDS011;26968;42.686;23.352;2023-04-07T02:02:24;36.78;;;21.40;;
41233;SDS011;26968;42.686;23.352;2023-04-07T02:04:54;40.30;;;19.55;;
41233;SDS011;26968;42.686;23.352;2023-04-07T02:07:31;37.72;;;20.77;;
41233;SDS011;26968;42.686;23.352;2023-04-07T02:10:05;39.85;;;19.63;;
41233;SDS011;26968;42.686;23.352;2023-04-07T02:12:36;37.75;;;20.70;;
41233;SDS011;26968;42.686;23.352;2023-04-07T02:15:04;37.33;;;19.98;;
41233;SDS011;26968;42.686;23.352;2023-04-07T02:17:33;39.53;;;19.52;;
41233;SDS011;26968;42.686;23.352;2023-04-07T02:20:02;37.10;;;19.80;;
41233;SDS011;26968;42.686;23.352;2023-04-07T02:22:29;35.53;;;19.58;;
41233;SDS011;26968;42.686;23.352;2023-04-07T02:24:55;36.83;;;19.25;;
41233;SDS011;26968;42.686;23.352;2023-04-07T02:27:21;35.30;;;19.33;;
41233;SDS011;26968;42.686;23.352;2023-04-07T02:29:46;35.88;;;19.85;;
41233;SDS011;26968;42.686;23.352;2023-04-07T02:32:12;33.60;;;19.55;;
41233;SDS011;26968;42.686;23.352;2023-04-07T02:34:37;35.92;;;18.52;;
41233;SDS011;26968;42.686;23.352;2023-04-07T02:37:02;36.92;;;19.17;;
41233;SDS011;26968;42.686;23.352;2023-04-07T02:39:28;37.97;;;19.67;;
41233;SDS011;26968;42.686;23.352;2023-04-07T02:41:53;33.30;;;19.98;;
41233;SDS011;26968;42.686;23.352;2023-04-07T02:44:19;35.90;;;19.13;;
41233;SDS011;26968;42.686;23.352;2023-04-07T02:46:44;38.15;;;19.08;;
41233;SDS011;26968;42.686;23.352;2023-04-07T02:49:10;35.20;;;18.60;;
41233;SDS011;26968;42.686;23.352;2023-04-07T02:51:35;29.85;;;17.73;;
41233;SDS011;26968;42.686;23.352;2023-04-07T02:54:00;33.42;;;17.88;;
41233;SDS011;26968;42.686;23.352;2023-04-07T02:56:26;28.45;;;16.83;;
41233;SDS011;26968;42.686;23.352;2023-04-07T02:58:51;28.45;;;16.42;;
41233;SDS011;26968;42.686;23.352;2023-04-07T03:01:17;37.40;;;17.15;;
41233;SDS011;26968;42.686;23.352;2023-04-07T03:03:42;38.17;;;19.52;;
41233;SDS011;26968;42.686;23.352;2023-04-07T03:06:08;33.63;;;17.95;;
41233;SDS011;26968;42.686;23.352;2023-04-07T03:08:35;29.45;;;16.98;;
41233;SDS011;26968;42.686;23.352;2023-04-07T03:11:01;29.08;;;17.13;;
41233;SDS011;26968;42.686;23.352;2023-04-07T03:13:26;31.75;;;17.02;;
41233;SDS011;26968;42.686;23.352;2023-04-07T03:15:53;34.60;;;18.10;;
41233;SDS011;26968;42.686;23.352;2023-04-07T03:18:19;30.83;;;17.20;;
41233;SDS011;26968;42.686;23.352;2023-04-07T03:20:46;29.55;;;17.02;;
41233;SDS011;26968;42.686;23.352;2023-04-07T03:23:12;39.33;;;17.67;;
41233;SDS011;26968;42.686;23.352;2023-04-07T03:25:37;31.60;;;17.35;;
41233;SDS011;26968;42.686;23.352;2023-04-07T03:28:03;24.70;;;16.40;;
41233;SDS011;26968;42.686;23.352;2023-04-07T03:30:28;30.58;;;18.30;;
41233;SDS011;26968;42.686;23.352;2023-04-07T03:32:54;35.10;;;18.08;;
41233;SDS011;26968;42.686;23.352;2023-04-07T03:35:19;41.08;;;17.90;;
41233;SDS011;26968;42.686;23.352;2023-04-07T03:37:45;30.90;;;18.23;;
41233;SDS011;26968;42.686;23.352;2023-04-07T03:40:10;25.15;;;14.48;;
41233;SDS011;26968;42.686;23.352;2023-04-07T03:42:36;36.97;;;15.85;;
41233;SDS011;26968;42.686;23.352;2023-04-07T03:45:01;31.67;;;14.93;;
41233;SDS011;26968;42.686;23.352;2023-04-07T03:47:27;30.35;;;15.98;;
41233;SDS011;26968;42.686;23.352;2023-04-07T03:49:52;38.72;;;18.48;;
41233;SDS011;26968;42.686;23.352;2023-04-07T03:52:18;42.00;;;21.35;;
41233;SDS011;26968;42.686;23.352;2023-04-07T03:54:43;42.55;;;21.08;;
41233;SDS011;26968;42.686;23.352;2023-04-07T03:57:08;37.13;;;20.30;;
41233;SDS011;26968;42.686;23.352;2023-04-07T03:59:34;35.95;;;20.55;;
41233;SDS011;26968;42.686;23.352;2023-04-07T04:02:00;36.15;;;19.63;;
41233;SDS011;26968;42.686;23.352;2023-04-07T04:04:25;39.00;;;20.83;;
41233;SDS011;26968;42.686;23.352;2023-04-07T04:06:51;38.67;;;21.15;;
41233;SDS011;26968;42.686;23.352;2023-04-07T04:09:16;41.40;;;20.42;;
41233;SDS011;26968;42.686;23.352;2023-04-07T04:11:42;36.67;;;19.30;;
41233;SDS011;26968;42.686;23.352;2023-04-07T04:14:07;62.80;;;26.55;;
41233;SDS011;26968;42.686;23.352;2023-04-07T04:16:33;40.10;;;21.42;;
41233;SDS011;26968;42.686;23.352;2023-04-07T04:18:59;39.47;;;21.55;;
41233;SDS011;26968;42.686;23.352;2023-04-07T04:21:26;44.53;;;23.23;;
41233;SDS011;26968;42.686;23.352;2023-04-07T04:23:51;55.90;;;25.65;;
41233;SDS011;26968;42.686;23.352;2023-04-07T04:26:17;57.63;;;25.88;;
41233;SDS011;26968;42.686;23.352;2023-04-07T04:28:42;44.80;;;24.80;;
41233;SDS011;26968;42.686;23.352;2023-04-07T04:31:08;43.08;;;23.40;;
41233;SDS011;26968;42.686;23.352;2023-04-07T04:33:33;53.65;;;24.30;;
41233;SDS011;26968;42.686;23.352;2023-04-07T04:35:59;53.38;;;22.95;;
41233;SDS011;26968;42.686;23.352;2023-04-07T04:38:24;48.00;;;24.25;;
41233;SDS011;26968;42.686;23.352;2023-04-07T04:40:50;49.88;;;24.60;;
41233;SDS011;26968;42.686;23.352;2023-04-07T04:43:15;47.15;;;24.05;;
41233;SDS011;26968;42.686;23.352;2023-04-07T04:45:41;50.47;;;24.17;;
41233;SDS011;26968;42.686;23.352;2023-04-07T04:48:06;54.00;;;25.55;;
41233;SDS011;26968;42.686;23.352;2023-04-07T04:50:31;52.58;;;24.92;;
41233;SDS011;26968;42.686;23.352;2023-04-07T04:52:57;56.85;;;25.02;;
41233;SDS011;26968;42.686;23.352;2023-04-07T04:55:22;46.38;;;23.52;;
41233;SDS011;26968;42.686;23.352;2023-04-07T04:57:48;48.45;;;23.42;;
41233;SDS011;26968;42.686;23.352;2023-04-07T05:00:13;52.90;;;22.20;;
41233;SDS011;26968;42.686;23.352;2023-04-07T05:02:39;45.15;;;22.10;;
41233;SDS011;26968;42.686;23.352;2023-04-07T05:05:07;44.00;;;21.50;;
41233;SDS011;26968;42.686;23.352;2023-04-07T05:07:33;37.30;;;20.23;;
41233;SDS011;26968;42.686;23.352;2023-04-07T05:09:58;41.63;;;21.25;;
41233;SDS011;26968;42.686;23.352;2023-04-07T05:12:24;44.17;;;21.20;;
41233;SDS011;26968;42.686;23.352;2023-04-07T05:14:49;41.45;;;21.70;;
41233;SDS011;26968;42.686;23.352;2023-04-07T05:17:15;40.53;;;21.23;;
41233;SDS011;26968;42.686;23.352;2023-04-07T05:19:40;43.35;;;21.08;;
41233;SDS011;26968;42.686;23.352;2023-04-07T05:22:06;43.63;;;20.08;;
41233;SDS011;26968;42.686;23.352;2023-04-07T05:24:31;37.47;;;20.52;;
41233;SDS011;26968;42.686;23.352;2023-04-07T05:26:56;42.17;;;21.15;;
41233;SDS011;26968;42.686;23.352;2023-04-07T05:29:22;40.53;;;21.42;;
41233;SDS011;26968;42.686;23.352;2023-04-07T05:31:48;43.22;;;21.95;;
41233;SDS011;26968;42.686;23.352;2023-04-07T05:34:13;39.65;;;20.83;;
41233;SDS011;26968;42.686;23.352;2023-04-07T05:36:39;41.00;;;21.08;;
41233;SDS011;26968;42.686;23.352;2023-04-07T05:39:06;46.53;;;22.55;;
41233;SDS011;26968;42.686;23.352;2023-04-07T05:41:32;48.85;;;22.35;;
41233;SDS011;26968;42.686;23.352;2023-04-07T05:43:58;39.08;;;19.83;;
41233;SDS011;26968;42.686;23.352;2023-04-07T05:46:23;40.80;;;21.45;;
41233;SDS011;26968;42.686;23.352;2023-04-07T05:48:49;47.75;;;22.33;;
41233;SDS011;26968;42.686;23.352;2023-04-07T05:51:15;46.70;;;22.83;;
41233;SDS011;26968;42.686;23.352;2023-04-07T05:53:42;40.35;;;23.65;;
41233;SDS011;26968;42.686;23.352;2023-04-07T05:56:07;46.92;;;23.02;;
41233;SDS011;26968;42.686;23.352;2023-04-07T05:58:32;37.25;;;21.27;;
41233;SDS011;26968;42.686;23.352;2023-04-07T06:00:58;41.25;;;22.27;;
41233;SDS011;26968;42.686;23.352;2023-04-07T06:03:23;34.28;;;20.15;;
41233;SDS011;26968;42.686;23.352;2023-04-07T06:05:49;34.33;;;19.30;;
41233;SDS011;26968;42.686;23.352;2023-04-07T06:08:14;38.75;;;20.02;;
41233;SDS011;26968;42.686;23.352;2023-04-07T06:10:39;43.95;;;22.88;;
41233;SDS011;26968;42.686;23.352;2023-04-07T06:13:05;37.33;;;19.70;;
41233;SDS011;26968;42.686;23.352;2023-04-07T06:15:31;38.95;;;20.38;;
41233;SDS011;26968;42.686;23.352;2023-04-07T06:17:57;35.45;;;18.65;;
41233;SDS011;26968;42.686;23.352;2023-04-07T06:20:22;36.63;;;19.20;;
41233;SDS011;26968;42.686;23.352;2023-04-07T06:22:48;34.00;;;17.27;;
41233;SDS011;26968;42.686;23.352;2023-04-07T06:25:13;35.08;;;18.65;;
41233;SDS011;26968;42.686;23.352;2023-04-07T06:27:39;36.30;;;19.48;;
41233;SDS011;26968;42.686;23.352;2023-04-07T06:30:04;34.45;;;16.08;;
41233;SDS011;26968;42.686;23.352;2023-04-07T06:32:30;31.00;;;17.70;;
41233;SDS011;26968;42.686;23.352;2023-04-07T06:34:57;41.70;;;16.65;;
41233;SDS011;26968;42.686;23.352;2023-04-07T06:37:22;33.83;;;18.85;;
41233;SDS011;26968;42.686;23.352;2023-04-07T06:39:49;37.38;;;16.73;;
41233;SDS011;26968;42.686;23.352;2023-04-07T06:42:15;39.50;;;19.83;;
41233;SDS011;26968;42.686;23.352;2023-04-07T06:44:40;34.22;;;18.38;;
41233;SDS011;26968;42.686;23.352;2023-04-07T06:47:06;33.83;;;18.13;;
41233;SDS011;26968;42.686;23.352;2023-04-07T06:49:33;32.65;;;19.45;;
41233;SDS011;26968;42.686;23.352;2023-04-07T06:51:58;49.97;;;21.30;;
41233;SDS011;26968;42.686;23.352;2023-04-07T06:54:24;39.72;;;19.63;;
41233;SDS011;26968;42.686;23.352;2023-04-07T06:56:49;35.13;;;17.42;;
41233;SDS011;26968;42.686;23.352;2023-04-07T06:59:15;46.40;;;20.63;;
41233;SDS011;26968;42.686;23.352;2023-04-07T07:01:40;33.78;;;17.75;;
41233;SDS011;26968;42.686;23.352;2023-04-07T07:04:07;31.65;;;17.73;;
41233;SDS011;26968;42.686;23.352;2023-04-07T07:06:33;30.33;;;16.92;;
41233;SDS011;26968;42.686;23.352;2023-04-07T07:08:58;34.63;;;16.75;;
41233;SDS011;26968;42.686;23.352;2023-04-07T07:11:24;27.48;;;16.40;;
41233;SDS011;26968;42.686;23.352;2023-04-07T07:13:50;29.52;;;16.90;;
41233;SDS011;26968;42.686;23.352;2023-04-07T07:16:15;32.15;;;16.55;;
41233;SDS011;26968;42.686;23.352;2023-04-07T07:18:41;32.67;;;16.95;;
41233;SDS011;26968;42.686;23.352;2023-04-07T07:21:06;31.95;;;15.63;;
41233;SDS011;26968;42.686;23.352;2023-04-07T07:23:32;32.10;;;18.02;;
41233;SDS011;26968;42.686;23.352;2023-04-07T07:25:58;45.70;;;17.73;;
41233;SDS011;26968;42.686;23.352;2023-04-07T07:28:24;29.65;;;16.98;;
41233;SDS011;26968;42.686;23.352;2023-04-07T07:30:56;31.98;;;18.15;;
41233;SDS011;26968;42.686;23.352;2023-04-07T07:33:22;38.10;;;19.42;;
41233;SDS011;26968;42.686;23.352;2023-04-07T07:35:47;34.35;;;14.60;;
41233;SDS011;26968;42.686;23.352;2023-04-07T07:38:13;13.35;;;7.28;;
41233;SDS011;26968;42.686;23.352;2023-04-07T07:40:38;25.67;;;12.90;;
41233;SDS011;26968;42.686;23.352;2023-04-07T07:43:04;37.70;;;18.55;;
41233;SDS011;26968;42.686;23.352;2023-04-07T07:45:30;35.08;;;19.63;;
41233;SDS011;26968;42.686;23.352;2023-04-07T07:47:56;43.33;;;17.92;;
41233;SDS011;26968;42.686;23.352;2023-04-07T07:50:21;41.80;;;18.38;;
41233;SDS011;26968;42.686;23.352;2023-04-07T07:52:48;47.25;;;18.63;;
41233;SDS011;26968;42.686;23.352;2023-04-07T07:55:13;40.20;;;16.58;;
41233;SDS011;26968;42.686;23.352;2023-04-07T07:57:40;15.30;;;7.93;;
41233;SDS011;26968;42.686;23.352;2023-04-07T08:00:06;16.23;;;7.88;;
41233;SDS011;26968;42.686;23.352;2023-04-07T08:02:32;14.25;;;7.47;;
41233;SDS011;26968;42.686;23.352;2023-04-07T08:04:58;13.68;;;8.27;;
41233;SDS011;26968;42.686;23.352;2023-04-07T08:07:25;11.73;;;7.22;;
41233;SDS011;26968;42.686;23.352;2023-04-07T08:09:51;17.50;;;6.97;;
41233;SDS011;26968;42.686;23.352;2023-04-07T08:12:17;14.70;;;6.88;;
41233;SDS011;26968;42.686;23.352;2023-04-07T08:14:43;12.88;;;6.53;;
41233;SDS011;26968;42.686;23.352;2023-04-07T08:17:08;11.63;;;6.55;;
41233;SDS011;26968;42.686;23.352;2023-04-07T08:19:34;16.27;;;7.57;;
41233;SDS011;26968;42.686;23.352;2023-04-07T08:21:59;15.82;;;7.10;;
41233;SDS011;26968;42.686;23.352;2023-04-07T08:24:27;12.95;;;7.32;;
41233;SDS011;26968;42.686;23.352;2023-04-07T08:26:53;15.10;;;6.82;;
41233;SDS011;26968;42.686;23.352;2023-04-07T08:29:18;14.05;;;7.40;;
41233;SDS011;26968;42.686;23.352;2023-04-07T08:31:43;13.65;;;6.90;;
41233;SDS011;26968;42.686;23.352;2023-04-07T08:34:09;15.45;;;7.03;;
41233;SDS011;26968;42.686;23.352;2023-04-07T08:36:34;14.50;;;6.82;;
41233;SDS011;26968;42.686;23.352;2023-04-07T08:39:00;14.27;;;7.20;;
41233;SDS011;26968;42.686;23.352;2023-04-07T08:41:28;15.68;;;7.53;;
41233;SDS011;26968;42.686;23.352;2023-04-07T08:43:57;16.35;;;7.97;;
41233;SDS011;26968;42.686;23.352;2023-04-07T08:46:25;20.58;;;7.85;;
41233;SDS011;26968;42.686;23.352;2023-04-07T08:48:51;11.77;;;7.65;;
41233;SDS011;26968;42.686;23.352;2023-04-07T08:51:23;13.98;;;7.53;;
41233;SDS011;26968;42.686;23.352;2023-04-07T08:53:52;11.23;;;7.00;;
41233;SDS011;26968;42.686;23.352;2023-04-07T08:56:19;9.75;;;6.47;;
41233;SDS011;26968;42.686;23.352;2023-04-07T08:58:47;12.52;;;7.40;;
41233;SDS011;26968;42.686;23.352;2023-04-07T09:01:14;12.73;;;7.40;;
41233;SDS011;26968;42.686;23.352;2023-04-07T09:03:41;12.23;;;7.03;;
41233;SDS011;26968;42.686;23.352;2023-04-07T09:06:08;11.65;;;7.57;;
41233;SDS011;26968;42.686;23.352;2023-04-07T09:08:37;10.07;;;7.07;;
41233;SDS011;26968;42.686;23.352;2023-04-07T09:11:03;11.98;;;7.63;;
41233;SDS011;26968;42.686;23.352;2023-04-07T09:13:28;16.25;;;8.90;;
41233;SDS011;26968;42.686;23.352;2023-04-07T09:15:55;12.27;;;8.02;;
41233;SDS011;26968;42.686;23.352;2023-04-07T09:18:21;14.45;;;8.10;;
41233;SDS011;26968;42.686;23.352;2023-04-07T09:20:57;16.90;;;8.68;;
41233;SDS011;26968;42.686;23.352;2023-04-07T09:25:53;15.75;;;9.13;;
41233;SDS011;26968;42.686;23.352;2023-04-07T09:28:23;17.67;;;9.27;;
41233;SDS011;26968;42.686;23.352;2023-04-07T09:30:55;12.32;;;8.25;;
41233;SDS011;26968;42.686;23.352;2023-04-07T09:33:27;12.05;;;7.35;;
41233;SDS011;26968;42.686;23.352;2023-04-07T09:35:54;14.57;;;8.65;;
41233;SDS011;26968;42.686;23.352;2023-04-07T09:38:20;14.05;;;9.10;;
41233;SDS011;26968;42.686;23.352;2023-04-07T09:40:45;13.90;;;8.00;;
41233;SDS011;26968;42.686;23.352;2023-04-07T09:43:16;14.20;;;7.60;;
41233;SDS011;26968;42.686;23.352;2023-04-07T09:48:19;16.65;;;8.55;;
41233;SDS011;26968;42.686;23.352;2023-04-07T09:50:45;16.42;;;8.82;;
41233;SDS011;26968;42.686;23.352;2023-04-07T09:53:16;12.38;;;9.27;;
41233;SDS011;26968;42.686;23.352;2023-04-07T09:55:47;13.27;;;8.27;;
41233;SDS011;26968;42.686;23.352;2023-04-07T09:58:13;14.32;;;8.20;;
41233;SDS011;26968;42.686;23.352;2023-04-07T10:00:40;22.60;;;9.52;;
41233;SDS011;26968;42.686;23.352;2023-04-07T10:03:06;12.70;;;8.55;;
41233;SDS011;26968;42.686;23.352;2023-04-07T10:05:32;11.48;;;8.35;;
41233;SDS011;26968;42.686;23.352;2023-04-07T10:07:59;17.77;;;7.70;;
41233;SDS011;26968;42.686;23.352;2023-04-07T10:10:26;12.25;;;7.70;;
41233;SDS011;26968;42.686;23.352;2023-04-07T10:12:52;11.32;;;7.68;;
41233;SDS011;26968;42.686;23.352;2023-04-07T10:15:18;14.40;;;7.82;;
41233;SDS011;26968;42.686;23.352;2023-04-07T10:17:45;16.75;;;8.23;;
41233;SDS011;26968;42.686;23.352;2023-04-07T10:20:17;17.52;;;9.35;;
41233;SDS011;26968;42.686;23.352;2023-04-07T10:22:45;17.13;;;9.10;;
41233;SDS011;26968;42.686;23.352;2023-04-07T10:25:15;12.93;;;8.05;;
41233;SDS011;26968;42.686;23.352;2023-04-07T10:27:44;12.45;;;8.15;;
41233;SDS011;26968;42.686;23.352;2023-04-07T10:30:23;21.50;;;8.85;;
41233;SDS011;26968;42.686;23.352;2023-04-07T10:32:52;18.27;;;9.30;;
41233;SDS011;26968;42.686;23.352;2023-04-07T10:35:19;15.02;;;8.07;;
41233;SDS011;26968;42.686;23.352;2023-04-07T10:40:34;15.93;;;8.30;;
41233;SDS011;26968;42.686;23.352;2023-04-07T10:43:01;20.05;;;9.13;;
41233;SDS011;26968;42.686;23.352;2023-04-07T10:48:12;15.80;;;8.48;;
41233;SDS011;26968;42.686;23.352;2023-04-07T10:50:39;17.20;;;8.88;;
41233;SDS011;26968;42.686;23.352;2023-04-07T10:53:08;20.05;;;8.98;;
41233;SDS011;26968;42.686;23.352;2023-04-07T11:03:38;17.05;;;9.65;;
41233;SDS011;26968;42.686;23.352;2023-04-07T11:06:25;14.75;;;8.45;;
41233;SDS011;26968;42.686;23.352;2023-04-07T11:08:51;16.92;;;8.70;;
41233;SDS011;26968;42.686;23.352;2023-04-07T11:11:35;18.27;;;9.70;;
41233;SDS011;26968;42.686;23.352;2023-04-07T11:14:03;13.95;;;9.23;;
41233;SDS011;26968;42.686;23.352;2023-04-07T11:16:39;15.98;;;9.07;;
41233;SDS011;26968;42.686;23.352;2023-04-07T11:19:09;21.10;;;8.85;;
41233;SDS011;26968;42.686;23.352;2023-04-07T11:21:35;26.25;;;9.48;;
41233;SDS011;26968;42.686;23.352;2023-04-07T11:24:02;18.50;;;9.50;;
41233;SDS011;26968;42.686;23.352;2023-04-07T11:26:27;15.02;;;9.15;;
41233;SDS011;26968;42.686;23.352;2023-04-07T11:28:54;20.65;;;9.10;;
41233;SDS011;26968;42.686;23.352;2023-04-07T11:31:22;21.85;;;9.18;;
41233;SDS011;26968;42.686;23.352;2023-04-07T11:33:54;17.38;;;8.93;;
41233;SDS011;26968;42.686;23.352;2023-04-07T11:36:27;13.75;;;8.82;;
41233;SDS011;26968;42.686;23.352;2023-04-07T11:38:57;18.95;;;9.20;;
41233;SDS011;26968;42.686;23.352;2023-04-07T11:41:24;16.20;;;9.52;;
41233;SDS011;26968;42.686;23.352;2023-04-07T11:44:07;12.70;;;8.50;;
41233;SDS011;26968;42.686;23.352;2023-04-07T11:46:34;17.35;;;9.75;;
41233;SDS011;26968;42.686;23.352;2023-04-07T11:49:07;18.08;;;9.75;;
41233;SDS011;26968;42.686;23.352;2023-04-07T11:51:36;20.42;;;9.05;;
41233;SDS011;26968;42.686;23.352;2023-04-07T11:54:02;14.90;;;9.35;;
41233;SDS011;26968;42.686;23.352;2023-04-07T11:56:28;14.90;;;9.32;;
41233;SDS011;26968;42.686;23.352;2023-04-07T11:58:54;19.00;;;9.68;;
41233;SDS011;26968;42.686;23.352;2023-04-07T12:01:20;20.10;;;10.20;;
41233;SDS011;26968;42.686;23.352;2023-04-07T12:03:58;18.60;;;10.23;;
41233;SDS011;26968;42.686;23.352;2023-04-07T12:06:26;18.00;;;10.43;;
41233;SDS011;26968;42.686;23.352;2023-04-07T12:08:58;20.75;;;9.70;;
41233;SDS011;26968;42.686;23.352;2023-04-07T12:11:24;14.02;;;9.00;;
41233;SDS011;26968;42.686;23.352;2023-04-07T12:13:50;13.80;;;8.80;;
41233;SDS011;26968;42.686;23.352;2023-04-07T12:16:16;18.58;;;10.15;;
41233;SDS011;26968;42.686;23.352;2023-04-07T12:18:43;12.88;;;8.52;;
41233;SDS011;26968;42.686;23.352;2023-04-07T12:21:08;14.38;;;9.15;;
41233;SDS011;26968;42.686;23.352;2023-04-07T12:23:34;18.13;;;9.77;;
41233;SDS011;26968;42.686;23.352;2023-04-07T12:26:00;17.10;;;9.52;;
41233;SDS011;26968;42.686;23.352;2023-04-07T12:28:26;20.92;;;9.90;;
41233;SDS011;26968;42.686;23.352;2023-04-07T12:30:51;13.05;;;8.38;;
41233;SDS011;26968;42.686;23.352;2023-04-07T12:33:17;14.90;;;9.48;;
41233;SDS011;26968;42.686;23.352;2023-04-07T12:35:44;15.50;;;9.90;;
41233;SDS011;26968;42.686;23.352;2023-04-07T12:38:09;15.13;;;9.68;;
41233;SDS011;26968;42.686;23.352;2023-04-07T12:40:35;18.77;;;10.85;;
41233;SDS011;26968;42.686;23.352;2023-04-07T12:43:01;18.15;;;10.02;;
41233;SDS011;26968;42.686;23.352;2023-04-07T12:45:27;14.05;;;9.60;;
41233;SDS011;26968;42.686;23.352;2023-04-07T12:47:55;16.15;;;10.88;;
41233;SDS011;26968;42.686;23.352;2023-04-07T12:50:20;13.45;;;9.90;;
41233;SDS011;26968;42.686;23.352;2023-04-07T12:52:46;15.23;;;10.52;;
41233;SDS011;26968;42.686;23.352;2023-04-07T12:55:13;15.27;;;9.70;;
41233;SDS011;26968;42.686;23.352;2023-04-07T12:57:38;16.27;;;10.45;;
41233;SDS011;26968;42.686;23.352;2023-04-07T13:00:04;21.10;;;10.38;;
41233;SDS011;26968;42.686;23.352;2023-04-07T13:02:30;14.40;;;9.35;;
41233;SDS011;26968;42.686;23.352;2023-04-07T13:04:56;16.58;;;10.15;;
41233;SDS011;26968;42.686;23.352;2023-04-07T13:07:22;18.40;;;10.20;;
41233;SDS011;26968;42.686;23.352;2023-04-07T13:09:47;21.45;;;11.07;;
41233;SDS011;26968;42.686;23.352;2023-04-07T13:12:13;17.27;;;10.50;;
41233;SDS011;26968;42.686;23.352;2023-04-07T13:14:39;20.55;;;10.63;;
41233;SDS011;26968;42.686;23.352;2023-04-07T13:17:06;14.38;;;9.85;;
41233;SDS011;26968;42.686;23.352;2023-04-07T13:19:32;17.33;;;10.27;;
41233;SDS011;26968;42.686;23.352;2023-04-07T13:21:57;18.23;;;10.48;;
41233;SDS011;26968;42.686;23.352;2023-04-07T13:24:23;16.50;;;10.45;;
41233;SDS011;26968;42.686;23.352;2023-04-07T13:26:49;19.58;;;9.43;;
41233;SDS011;26968;42.686;23.352;2023-04-07T13:29:16;16.00;;;9.50;;
41233;SDS011;26968;42.686;23.352;2023-04-07T13:31:43;17.40;;;10.45;;
41233;SDS011;26968;42.686;23.352;2023-04-07T13:34:10;20.92;;;10.80;;
41233;SDS011;26968;42.686;23.352;2023-04-07T13:36:36;17.50;;;11.43;;
41233;SDS011;26968;42.686;23.352;2023-04-07T13:39:01;18.73;;;10.85;;
41233;SDS011;26968;42.686;23.352;2023-04-07T13:41:27;14.15;;;10.18;;
41233;SDS011;26968;42.686;23.352;2023-04-07T13:43:52;16.25;;;9.40;;
41233;SDS011;26968;42.686;23.352;2023-04-07T13:46:17;12.75;;;9.05;;
41233;SDS011;26968;42.686;23.352;2023-04-07T13:48:46;19.13;;;9.75;;
41233;SDS011;26968;42.686;23.352;2023-04-07T13:51:12;17.90;;;9.57;;
41233;SDS011;26968;42.686;23.352;2023-04-07T13:53:37;15.88;;;10.38;;
41233;SDS011;26968;42.686;23.352;2023-04-07T13:56:03;14.05;;;9.43;;
41233;SDS011;26968;42.686;23.352;2023-04-07T13:58:30;16.90;;;9.85;;
41233;SDS011;26968;42.686;23.352;2023-04-07T14:00:57;16.88;;;9.25;;
41233;SDS011;26968;42.686;23.352;2023-04-07T14:03:22;19.27;;;9.32;;
41233;SDS011;26968;42.686;23.352;2023-04-07T14:05:48;19.50;;;9.50;;
41233;SDS011;26968;42.686;23.352;2023-04-07T14:08:13;16.98;;;9.45;;
41233;SDS011;26968;42.686;23.352;2023-04-07T14:10:39;17.73;;;10.32;;
41233;SDS011;26968;42.686;23.352;2023-04-07T14:13:05;18.42;;;10.15;;
41233;SDS011;26968;42.686;23.352;2023-04-07T14:15:31;21.73;;;10.45;;
41233;SDS011;26968;42.686;23.352;2023-04-07T14:17:56;15.80;;;9.40;;
41233;SDS011;26968;42.686;23.352;2023-04-07T14:20:22;17.73;;;10.07;;
41233;SDS011;26968;42.686;23.352;2023-04-07T14:22:47;16.25;;;9.68;;
41233;SDS011;26968;42.686;23.352;2023-04-07T14:25:12;19.13;;;11.85;;
41233;SDS011;26968;42.686;23.352;2023-04-07T14:27:38;14.55;;;9.38;;
41233;SDS011;26968;42.686;23.352;2023-04-07T14:30:03;16.30;;;9.90;;
41233;SDS011;26968;42.686;23.352;2023-04-07T14:32:29;24.23;;;10.52;;
41233;SDS011;26968;42.686;23.352;2023-04-07T14:34:56;18.75;;;10.77;;
41233;SDS011;26968;42.686;23.352;2023-04-07T14:37:23;17.30;;;10.05;;